Time;durP1;ratioP1;P1;durP2;ratioP2;P2;SDS_P1;SDS_P2;PMS_P1;PMS_P2;Temp;Humidity;BMP_temperature;BMP_pressure;BME280_temperature;BME280_humidity;BME280_pressure;Samples;Min_cycle;Max_cycle;Signal;HPM_P1;HPM_P2
2022/06/15 00:02:21;;;;;;;4.35;2.85;;;;;;;8.26;67.96;100759.77;2172883;80;20974;-68
2022/06/15 00:05:22;;;;;;;7.55;2.50;;;;;;;8.25;68.21;100758.94;2170173;81;20997;-68
2022/06/15 00:08:24;;;;;;;6.05;2.02;;;;;;;8.29;68.48;100759.50;2171049;80;20932;-69
2022/06/15 00:11:34;;;;;;;4.15;2.75;;;;;;;8.26;68.33;100755.80;2173613;80;21010;-68
2022/06/15 00:14:39;;;;;;;14.20;2.83;;;;;;;8.21;68.19;100756.20;2171778;81;21028;-68
2022/06/15 00:17:41;;;;;;;10.08;2.98;;;;;;;8.21;68.34;100758.02;2164282;81;21053;-68
2022/06/15 00:20:42;;;;;;;8.83;2.62;;;;;;;8.20;68.20;100759.83;2167579;81;21662;-68
2022/06/15 00:23:45;;;;;;;3.22;2.22;;;;;;;8.14;68.66;100763.02;2140206;80;21020;-68
2022/06/15 00:26:47;;;;;;;6.80;2.65;;;;;;;8.12;68.88;100760.98;2171769;80;21033;-69
2022/06/15 00:29:49;;;;;;;5.90;2.55;;;;;;;8.16;69.20;100768.16;2164292;80;21001;-68
2022/06/15 00:32:54;;;;;;;5.72;2.25;;;;;;;8.14;69.23;100763.02;2161911;80;21085;-68
2022/06/15 00:36:08;;;;;;;4.47;2.77;;;;;;;8.18;69.32;100763.09;2148899;80;21077;-68
2022/06/15 00:39:11;;;;;;;6.15;2.72;;;;;;;8.17;69.10;100768.52;2152526;81;20983;-68
2022/06/15 00:42:14;;;;;;;4.35;2.50;;;;;;;8.07;69.40;100774.59;2148820;81;22205;-69
2022/06/15 00:45:16;;;;;;;4.17;3.02;;;;;;;7.93;69.55;100767.53;2151298;81;20927;-68
2022/06/15 00:48:18;;;;;;;5.92;2.83;;;;;;;7.86;69.73;100769.39;2151307;81;21049;-68
2022/06/15 00:51:20;;;;;;;6.70;2.80;;;;;;;7.81;69.80;100766.30;2145679;81;20950;-68
2022/06/15 00:54:23;;;;;;;5.60;2.45;;;;;;;7.79;69.83;100768.73;2151717;81;20983;-68
2022/06/15 00:57:27;;;;;;;5.03;2.92;;;;;;;7.78;69.74;100759.14;2143996;81;21614;-68
2022/06/15 01:00:30;;;;;;;6.05;3.00;;;;;;;7.69;70.08;100762.59;2150742;81;20986;-68
2022/06/15 01:03:32;;;;;;;11.33;3.05;;;;;;;7.65;70.07;100755.39;2147585;81;21056;-68
2022/06/15 01:06:53;;;;;;;5.10;2.55;;;;;;;7.64;69.98;100757.20;2149393;81;20987;-68
2022/06/15 01:10:03;;;;;;;5.20;2.83;;;;;;;7.63;70.06;100756.03;2149949;81;21005;-68
2022/06/15 01:13:38;;;;;;;7.33;2.67;;;;;;;7.59;70.49;100762.03;2148057;81;21010;-68
2022/06/15 01:17:01;;;;;;;5.47;2.50;;;;;;;7.57;70.59;100758.71;2147569;81;21014;-68
2022/06/15 01:20:25;;;;;;;6.40;2.92;;;;;;;7.57;70.52;100760.48;2150718;80;21643;-68
2022/06/15 01:23:55;;;;;;;8.03;2.83;;;;;;;7.55;70.58;100759.81;2147527;81;21955;-68
2022/06/15 01:27:27;;;;;;;5.35;3.10;;;;;;;7.52;70.58;100760.91;2151934;80;21535;-69
2022/06/15 01:30:40;;;;;;;4.40;2.37;;;;;;;7.52;70.52;100756.94;2150251;81;21091;-69
2022/06/15 01:33:55;;;;;;;3.12;2.40;;;;;;;7.48;70.34;100757.33;2154052;81;21117;-69
2022/06/15 01:37:11;;;;;;;6.28;2.70;;;;;;;7.43;70.33;100761.67;2155609;81;21089;-69
2022/06/15 01:40:21;;;;;;;7.87;2.70;;;;;;;7.33;70.21;100755.52;2161116;81;21093;-69
2022/06/15 01:43:27;;;;;;;5.83;2.30;;;;;;;7.31;70.41;100755.63;2156691;81;21033;-69
2022/06/15 01:46:31;;;;;;;11.08;3.62;;;;;;;7.31;70.08;100755.63;2154873;81;20990;-69
2022/06/15 01:50:01;;;;;;;11.93;3.67;;;;;;;7.30;70.41;100754.45;2156853;81;21545;-69
2022/06/15 01:53:19;;;;;;;10.65;2.90;;;;;;;7.26;70.44;100754.34;2161343;81;21594;-69
2022/06/15 01:56:25;;;;;;;8.25;3.60;;;;;;;7.21;70.42;100757.85;2160791;81;21111;-69
2022/06/15 01:59:39;;;;;;;8.28;3.65;;;;;;;7.21;70.44;100757.39;2157420;81;21073;-69
2022/06/15 02:03:06;;;;;;;9.00;3.40;;;;;;;7.19;70.39;100751.40;2154887;81;21028;-69
2022/06/15 02:06:28;;;;;;;5.80;3.25;;;;;;;7.13;70.67;100758.52;2160844;81;21566;-69
2022/06/15 02:09:35;;;;;;;7.85;2.98;;;;;;;7.07;71.07;100757.23;2157236;81;21049;-69
2022/06/15 02:12:46;;;;;;;6.65;3.90;;;;;;;7.03;71.26;100756.28;2130509;81;21058;-69
2022/06/15 02:15:55;;;;;;;6.08;3.58;;;;;;;6.96;71.42;100758.61;2158526;81;21053;-69
2022/06/15 02:19:01;;;;;;;6.33;3.80;;;;;;;6.99;71.49;100752.25;2153910;81;21004;-68
2022/06/15 02:22:08;;;;;;;6.12;3.95;;;;;;;7.00;71.57;100757.38;2159140;81;21527;-68
2022/06/15 02:25:14;;;;;;;7.33;2.83;;;;;;;6.99;71.66;100753.08;2157719;81;21097;-68
2022/06/15 02:28:19;;;;;;;4.83;3.50;;;;;;;6.98;71.43;100746.11;2158050;81;21108;-68
2022/06/15 02:31:23;;;;;;;7.33;3.80;;;;;;;6.94;71.46;100753.45;2158246;81;21058;-68
2022/06/15 02:34:29;;;;;;;6.75;3.92;;;;;;;6.92;71.73;100750.09;2164341;80;21500;-68
2022/06/15 02:37:33;;;;;;;13.45;3.10;;;;;;;6.91;71.79;100751.55;2165270;80;21569;-67
2022/06/15 02:40:36;;;;;;;7.20;3.12;;;;;;;6.89;71.46;100749.52;2176061;81;21006;-68
2022/06/15 02:43:40;;;;;;;12.15;3.15;;;;;;;6.88;71.52;100751.33;2172975;80;21115;-68
2022/06/15 02:46:46;;;;;;;4.83;3.40;;;;;;;6.88;71.29;100750.49;2172343;80;21140;-68
2022/06/15 02:49:51;;;;;;;9.08;3.20;;;;;;;6.87;71.59;100755.39;2142431;80;21046;-68
2022/06/15 02:53:13;;;;;;;5.87;2.80;;;;;;;6.81;71.51;100761.19;2173626;81;21029;-68
2022/06/15 02:56:19;;;;;;;6.78;3.27;;;;;;;6.80;71.42;100760.84;2140414;81;21057;-68
2022/06/15 02:59:23;;;;;;;7.78;3.37;;;;;;;6.80;71.57;100768.27;2170063;81;21107;-68
2022/06/15 03:02:27;;;;;;;9.05;3.90;;;;;;;6.79;71.50;100775.00;2173286;81;21092;-68
2022/06/15 03:05:32;;;;;;;5.47;3.42;;;;;;;6.77;71.94;100778.23;2148210;81;21032;-68
2022/06/15 03:08:36;;;;;;;5.20;3.35;;;;;;;6.72;72.17;100774.16;2175302;81;21072;-68
2022/06/15 03:11:40;;;;;;;3.70;2.80;;;;;;;6.74;72.24;100774.05;2169983;81;21104;-67
2022/06/15 03:14:43;;;;;;;7.03;3.65;;;;;;;6.79;71.94;100773.20;2170604;81;21606;-68
2022/06/15 03:17:47;;;;;;;5.70;3.45;;;;;;;6.79;72.00;100775.00;2171008;80;21029;-68
2022/06/15 03:21:00;;;;;;;4.62;2.83;;;;;;;6.77;72.23;100779.56;2153083;81;21014;-68
2022/06/15 03:24:03;;;;;;;5.28;2.95;;;;;;;6.80;72.38;100771.39;2170026;81;21616;-68
2022/06/15 03:27:06;;;;;;;3.37;2.90;;;;;;;6.98;72.59;100778.25;2172226;80;21068;-68
2022/06/15 03:30:10;;;;;;;5.62;3.37;;;;;;;7.18;72.85;100780.09;2172841;80;21395;-68
2022/06/15 03:33:13;;;;;;;8.15;4.03;;;;;;;7.46;72.55;100775.09;2175906;80;21757;-68
2022/06/15 03:36:15;;;;;;;5.08;3.17;;;;;;;7.74;72.52;100777.07;2127255;81;20998;-68
2022/06/15 03:39:18;;;;;;;6.00;3.50;;;;;;;8.01;72.47;100780.42;2162595;81;20937;-68
2022/06/15 03:42:26;;;;;;;9.40;3.55;;;;;;;8.48;72.40;100774.59;2156867;81;21417;-68
2022/06/15 03:45:29;;;;;;;5.60;3.37;;;;;;;8.95;72.12;100767.66;2128770;81;20997;-68
2022/06/15 03:48:32;;;;;;;5.37;3.40;;;;;;;9.41;71.80;100771.83;2156534;81;21091;-68
2022/06/15 03:51:35;;;;;;;9.05;3.87;;;;;;;9.87;71.39;100766.98;2160730;81;21032;-68
2022/06/15 03:54:41;;;;;;;10.40;3.77;;;;;;;10.28;70.92;100772.83;2160018;81;21064;-69
2022/06/15 03:57:43;;;;;;;4.95;3.17;;;;;;;10.64;70.56;100764.05;2161331;81;21078;-69
2022/06/15 04:00:48;;;;;;;6.35;3.60;;;;;;;11.20;70.14;100765.52;2157339;81;21877;-68
2022/06/15 04:03:52;;;;;;;6.30;4.30;;;;;;;11.66;69.61;100766.16;2160036;81;21025;-69
2022/06/15 04:06:56;;;;;;;8.78;4.67;;;;;;;12.24;69.06;100763.26;2150673;81;21061;-69
2022/06/15 04:10:03;;;;;;;8.08;4.35;;;;;;;12.77;68.64;100766.03;2161771;81;21081;-68
2022/06/15 04:13:06;;;;;;;7.42;4.70;;;;;;;13.28;67.95;100763.22;2160719;81;21509;-69
2022/06/15 04:16:10;;;;;;;9.65;4.75;;;;;;;13.83;67.46;100768.59;2158939;81;21529;-69
2022/06/15 04:19:12;;;;;;;7.30;4.35;;;;;;;14.47;66.60;100771.61;2160510;81;21107;-69
2022/06/15 04:22:16;;;;;;;9.10;4.30;;;;;;;14.86;66.05;100767.53;2162438;81;21101;-71
2022/06/15 04:25:18;;;;;;;10.45;4.70;;;;;;;15.38;65.10;100765.93;2158853;81;21005;-68
2022/06/15 04:28:22;;;;;;;7.65;4.20;;;;;;;15.84;64.63;100761.26;2161136;81;21453;-68
2022/06/15 04:31:25;;;;;;;9.73;4.53;;;;;;;16.30;63.58;100761.51;2160843;81;21054;-69
2022/06/15 04:34:28;;;;;;;7.92;4.50;;;;;;;16.56;62.86;100759.13;2159845;81;21096;-68
2022/06/15 04:37:30;;;;;;;9.10;4.30;;;;;;;16.98;62.19;100766.06;2158165;81;21061;-69
2022/06/15 04:40:36;;;;;;;6.15;4.35;;;;;;;17.29;61.77;100770.20;2158383;81;20996;-68
2022/06/15 04:43:40;;;;;;;6.67;3.98;;;;;;;17.64;61.00;100769.73;2159634;81;23008;-69
2022/06/15 04:46:43;;;;;;;8.28;3.83;;;;;;;17.83;60.10;100771.73;2161008;81;21068;-68
2022/06/15 04:49:47;;;;;;;9.48;3.92;;;;;;;17.93;59.63;100767.34;2158706;81;21077;-69
2022/06/15 04:52:48;;;;;;;7.35;4.08;;;;;;;18.00;59.15;100766.86;2162748;81;20992;-70
2022/06/15 04:55:50;;;;;;;8.53;3.85;;;;;;;18.08;58.93;100768.04;2164077;81;21081;-69
2022/06/15 04:58:56;;;;;;;6.00;3.92;;;;;;;18.30;58.79;100766.06;2157961;81;21040;-69
2022/06/15 05:01:59;;;;;;;7.17;3.92;;;;;;;18.49;58.19;100770.33;2153601;81;21026;-70
2022/06/15 05:05:02;;;;;;;7.97;4.00;;;;;;;18.96;57.96;100768.06;2160252;81;21647;-70
2022/06/15 05:08:05;;;;;;;11.20;4.10;;;;;;;19.42;57.64;100763.17;2160235;81;21072;-69
2022/06/15 05:11:08;;;;;;;6.72;4.17;;;;;;;19.69;56.61;100768.03;2163489;81;21056;-69
2022/06/15 05:14:10;;;;;;;8.10;4.15;;;;;;;20.11;55.92;100767.69;2163106;81;21558;-71
2022/06/15 05:17:16;;;;;;;9.70;4.17;;;;;;;20.35;55.12;100763.42;2161470;81;21088;-70
2022/06/15 05:20:18;;;;;;;8.83;4.03;;;;;;;20.59;54.69;100768.62;2157726;81;21044;-71
2022/06/15 05:23:20;;;;;;;11.22;3.90;;;;;;;20.91;54.29;100769.42;2160487;81;21076;-70
2022/06/15 05:26:42;;;;;;;7.58;4.72;;;;;;;21.09;53.79;100772.72;2159714;81;20998;-71
2022/06/15 05:29:44;;;;;;;8.38;3.87;;;;;;;21.36;53.26;100766.55;2154137;81;21076;-71
2022/06/15 05:32:47;;;;;;;7.83;4.00;;;;;;;21.58;52.67;100771.57;2157268;81;21525;-71
2022/06/15 05:35:51;;;;;;;8.75;3.65;;;;;;;21.73;52.27;100767.97;2165255;81;20982;-69
2022/06/15 05:38:54;;;;;;;7.25;3.30;;;;;;;21.73;51.47;100767.15;2130177;81;21088;-69
2022/06/15 05:41:56;;;;;;;9.03;2.95;;;;;;;21.93;51.33;100760.48;2160175;81;20989;-69
2022/06/15 05:45:01;;;;;;;6.50;3.05;;;;;;;22.16;50.70;100764.37;2162408;81;22162;-69
2022/06/15 05:48:05;;;;;;;7.60;3.50;;;;;;;22.29;49.54;100760.68;2159632;81;21081;-69
2022/06/15 05:51:16;;;;;;;;;;;;;;;22.45;49.62;100759.23;2163202;81;21068;-69
2022/06/15 05:54:18;;;;;;;9.40;3.33;;;;;;;22.83;48.98;100761.55;2160321;81;20492;-70
2022/06/15 05:57:24;;;;;;;5.85;2.77;;;;;;;23.14;48.87;100758.28;2156488;81;21038;-69
2022/06/15 06:00:26;;;;;;;6.10;2.58;;;;;;;23.41;48.09;100755.94;2157500;81;21046;-70
2022/06/15 06:03:29;;;;;;;6.20;3.00;;;;;;;23.76;47.40;100751.84;2157355;81;21048;-71
2022/06/15 06:06:32;;;;;;;8.28;2.50;;;;;;;23.71;46.88;100753.13;2159228;81;21045;-69
2022/06/15 06:09:35;;;;;;;7.47;2.65;;;;;;;23.81;46.67;100758.73;2161768;81;20955;-69
2022/06/15 06:12:39;;;;;;;7.47;2.92;;;;;;;24.07;45.72;100753.30;2160374;81;21000;-69
2022/06/15 06:15:41;;;;;;;6.70;2.58;;;;;;;24.15;44.92;100760.23;2158273;81;21540;-69
2022/06/15 06:18:47;;;;;;;5.50;2.55;;;;;;;24.20;44.70;100747.32;2156870;81;21022;-69
2022/06/15 06:21:48;;;;;;;7.00;2.55;;;;;;;24.45;44.07;100751.90;2159519;81;20982;-69
2022/06/15 06:24:51;;;;;;;5.45;2.05;;;;;;;24.62;43.25;100749.75;2157374;81;21092;-69
2022/06/15 06:27:54;;;;;;;4.97;2.20;;;;;;;24.74;42.53;100748.60;2160926;81;21069;-70
2022/06/15 06:30:58;;;;;;;5.72;2.05;;;;;;;24.96;41.97;100754.12;2157835;81;21498;-70
2022/06/15 06:34:02;;;;;;;4.30;1.87;;;;;;;25.22;41.44;100752.66;2155667;81;20998;-70
2022/06/15 06:37:06;;;;;;;11.35;2.30;;;;;;;25.39;41.32;100747.20;2116475;83;21068;-70
2022/06/15 06:40:12;;;;;;;4.87;2.25;;;;;;;25.71;40.74;100741.95;2115403;83;21604;-70
2022/06/15 06:43:16;;;;;;;6.65;2.02;;;;;;;25.81;40.00;100746.68;2114629;83;21021;-70
2022/06/15 06:46:18;;;;;;;7.37;2.25;;;;;;;25.92;39.97;100747.12;2117632;83;21074;-70
2022/06/15 06:49:22;;;;;;;5.45;2.25;;;;;;;26.19;39.48;100749.63;2116176;83;21081;-70
2022/06/15 06:52:24;;;;;;;4.40;1.95;;;;;;;26.34;38.76;100743.78;2114516;83;21045;-70
2022/06/15 06:55:27;;;;;;;9.13;2.33;;;;;;;26.30;38.52;100749.47;2117725;83;20962;-71
2022/06/15 06:58:29;;;;;;;5.33;1.82;;;;;;;26.50;38.54;100745.31;2114445;83;21061;-70
2022/06/15 07:01:30;;;;;;;5.95;2.30;;;;;;;26.82;37.78;100751.61;2120552;83;20987;-70
2022/06/15 07:04:32;;;;;;;3.30;1.85;;;;;;;26.70;37.47;100749.61;2116155;83;21061;-70
2022/06/15 07:07:34;;;;;;;3.42;1.62;;;;;;;26.66;36.99;100753.91;2114144;83;21515;-69
2022/06/15 07:10:37;;;;;;;3.62;1.80;;;;;;;26.72;35.17;100746.61;2117333;83;21072;-70
2022/06/15 07:13:40;;;;;;;3.80;1.85;;;;;;;26.41;35.47;100748.19;2117127;83;20971;-69
2022/06/15 07:16:42;;;;;;;4.33;2.10;;;;;;;26.19;35.63;100751.80;2117527;83;20990;-69
2022/06/15 07:19:46;;;;;;;5.62;2.12;;;;;;;25.71;35.44;100743.85;2117317;83;21514;-69
2022/06/15 07:22:48;;;;;;;5.47;1.90;;;;;;;25.32;35.82;100749.83;2119621;83;21081;-69
2022/06/15 07:25:50;;;;;;;2.83;1.60;;;;;;;25.21;35.95;100750.20;2118517;83;21068;-69
2022/06/15 07:28:53;;;;;;;4.25;1.90;;;;;;;25.30;36.34;100742.45;2112621;83;21010;-69
2022/06/15 07:31:56;;;;;;;4.60;1.82;;;;;;;25.45;36.22;100749.45;2116943;83;21089;-69
2022/06/15 07:34:58;;;;;;;4.12;1.70;;;;;;;25.90;35.49;100741.14;2129750;80;21053;-69
2022/06/15 07:38:01;;;;;;;4.20;1.32;;;;;;;26.03;35.04;100740.45;2164975;80;21009;-68
2022/06/15 07:41:02;;;;;;;2.75;1.67;;;;;;;26.26;35.01;100744.24;2167338;80;21009;-68
2022/06/15 07:44:05;;;;;;;3.45;1.60;;;;;;;26.46;34.39;100749.06;2167491;80;21013;-68
2022/06/15 07:50:31;;;;;;;3.90;1.67;;;;;;;26.85;33.47;100744.02;2168620;80;21081;-69
2022/06/15 07:53:36;;;;;;;4.75;1.60;;;;;;;26.51;33.29;100741.53;2169042;80;21045;-69
2022/06/15 07:56:42;;;;;;;3.62;1.55;;;;;;;26.43;33.88;100739.25;2162283;80;21543;-69
2022/06/15 07:59:44;;;;;;;2.47;1.45;;;;;;;26.73;33.72;100745.55;2165653;81;20974;-70
2022/06/15 08:02:47;;;;;;;7.45;2.45;;;;;;;26.86;33.24;100747.00;2165306;80;21056;-69
2022/06/15 08:05:51;;;;;;;3.35;1.75;;;;;;;26.94;32.49;100745.98;2167927;80;20984;-69
2022/06/15 08:08:54;;;;;;;4.67;1.70;;;;;;;26.65;32.39;100742.75;2165431;81;21053;-69
2022/06/15 08:12:11;;;;;;;2.40;1.40;;;;;;;26.28;32.91;100739.92;2166980;81;20975;-69
2022/06/15 08:15:14;;;;;;;3.67;1.77;;;;;;;26.32;33.01;100745.12;2162838;81;21057;-69
2022/06/15 08:18:23;;;;;;;4.12;1.92;;;;;;;26.67;33.19;100738.43;2167194;80;21517;-69
2022/06/15 08:21:29;;;;;;;6.17;1.50;;;;;;;26.81;32.96;100731.47;2165373;81;20954;-69
2022/06/15 08:24:31;;;;;;;5.03;1.70;;;;;;;26.84;32.26;100732.31;2164502;80;21595;-69
2022/06/15 08:27:34;;;;;;;5.90;2.15;;;;;;;26.85;33.29;100732.58;2168012;80;21057;-69
2022/06/15 08:30:37;;;;;;;3.55;1.52;;;;;;;26.99;32.70;100728.33;2136569;81;20978;-69
2022/06/15 08:33:41;;;;;;;3.37;1.45;;;;;;;26.99;32.50;100727.52;2168140;81;21065;-68
2022/06/15 08:36:46;;;;;;;4.85;1.65;;;;;;;26.59;32.12;100727.46;2147083;81;21014;-69
2022/06/15 08:39:47;;;;;;;3.15;1.80;;;;;;;26.65;32.44;100722.34;2145527;81;21057;-69
2022/06/15 08:43:03;;;;;;;4.35;1.62;;;;;;;26.69;32.65;100719.91;2147418;81;21368;-69
2022/06/15 08:46:31;;;;;;;5.58;1.95;;;;;;;26.88;32.53;100720.34;2140873;81;20953;-69
2022/06/15 08:49:49;;;;;;;5.10;1.70;;;;;;;27.03;31.29;100716.36;2127348;81;20952;-68
2022/06/15 08:53:36;;;;;;;5.22;1.85;;;;;;;26.74;32.17;100722.14;2143841;81;21053;-69
2022/06/15 08:56:46;;;;;;;5.03;1.82;;;;;;;26.69;32.52;100708.48;2143915;81;21029;-69
2022/06/15 08:59:52;;;;;;;5.75;1.82;;;;;;;26.65;32.53;100715.54;2139608;81;21001;-68
2022/06/15 09:03:24;;;;;;;3.20;1.52;;;;;;;26.52;32.64;100711.87;2146530;81;20982;-71
2022/06/15 09:07:03;;;;;;;3.22;1.50;;;;;;;26.18;32.81;100712.06;2138556;81;21002;-72
2022/06/15 09:10:53;;;;;;;4.30;1.90;;;;;;;25.97;32.56;100713.75;2141674;81;21085;-70
2022/06/15 09:14:18;;;;;;;7.53;1.87;;;;;;;26.06;32.42;100715.47;2143393;81;21096;-71
2022/06/15 09:17:23;;;;;;;2.30;1.52;;;;;;;26.34;32.18;100715.77;2143407;81;21077;-70
2022/06/15 09:20:38;;;;;;;4.65;1.90;;;;;;;26.48;32.47;100716.17;2141596;81;21022;-70
2022/06/15 09:24:01;;;;;;;5.28;1.60;;;;;;;26.69;32.47;100713.92;2138543;81;21093;-71
2022/06/15 09:27:10;;;;;;;4.33;1.70;;;;;;;26.81;31.69;100716.50;2140502;81;21057;-70
2022/06/15 09:30:17;;;;;;;5.67;1.82;;;;;;;26.89;32.15;100713.30;2140766;81;21477;-70
2022/06/15 09:33:28;;;;;;;3.92;1.60;;;;;;;27.07;32.31;100707.97;2142577;81;21065;-70
2022/06/15 09:36:33;;;;;;;4.15;1.57;;;;;;;27.27;32.31;100711.39;2147505;81;22256;-71
2022/06/15 09:39:36;;;;;;;6.42;2.02;;;;;;;27.16;31.99;100706.41;2152954;81;21053;-71
2022/06/15 09:42:52;;;;;;;3.92;1.60;;;;;;;27.12;31.33;100701.20;2153669;81;21022;-71
2022/06/15 09:46:23;;;;;;;4.62;1.90;;;;;;;27.36;31.29;100697.53;2148484;81;20983;-71
2022/06/15 09:50:05;;;;;;;4.55;1.42;;;;;;;27.28;31.86;100691.22;2151483;81;21603;-71
2022/06/15 09:53:41;;;;;;;4.28;1.65;;;;;;;26.72;31.46;100687.58;2151686;81;20990;-70
2022/06/15 09:56:42;;;;;;;5.85;1.80;;;;;;;26.96;31.94;100688.55;2152141;82;20998;-71
2022/06/15 09:59:44;;;;;;;5.17;1.62;;;;;;;26.94;30.96;100687.44;2156671;81;21007;-70
2022/06/15 10:02:54;;;;;;;3.77;1.67;;;;;;;26.39;31.49;100693.52;2147911;81;21108;-70
2022/06/15 10:06:04;;;;;;;3.65;1.50;;;;;;;25.64;31.51;100684.78;2156238;81;20962;-70
2022/06/15 10:09:08;;;;;;;;;;;;;;;25.63;33.05;100685.86;2148656;81;21081;-71
2022/06/15 10:16:21;;;;;;;4.08;1.42;;;;;;;25.46;32.14;100679.95;2153027;81;21018;-71
2022/06/15 10:19:26;;;;;;;4.30;1.62;;;;;;;25.33;31.26;100669.98;2154660;81;22169;-70
2022/06/15 10:22:36;;;;;;;3.87;2.00;;;;;;;24.97;33.16;100670.25;2147987;81;21515;-71
2022/06/15 10:25:38;;;;;;;3.87;1.55;;;;;;;24.77;33.15;100666.70;2137307;81;21028;-71
2022/06/15 10:28:41;;;;;;;3.12;1.50;;;;;;;25.09;33.86;100672.05;2154827;81;21604;-71
2022/06/15 10:32:00;;;;;;;5.03;1.80;;;;;;;25.21;33.15;100668.20;2153756;81;20975;-71
2022/06/15 10:35:17;;;;;;;4.90;1.57;;;;;;;25.36;33.73;100672.20;2152525;81;20955;-71
2022/06/15 10:38:19;;;;;;;2.75;1.37;;;;;;;25.05;33.18;100675.27;2144877;81;21031;-71
2022/06/15 10:41:46;;;;;;;4.05;1.67;;;;;;;24.66;33.49;100663.54;2156039;81;21602;-71
2022/06/15 10:45:19;;;;;;;5.40;1.92;;;;;;;24.48;33.68;100661.90;2148595;81;21013;-71
2022/06/15 10:48:37;;;;;;;4.35;1.60;;;;;;;24.74;33.91;100659.59;2152451;81;21109;-70
2022/06/15 10:51:39;;;;;;;3.77;1.67;;;;;;;25.11;33.97;100665.30;2134114;81;21060;-70
2022/06/15 11:04:53;;;;;;;2.52;1.32;;;;;;;25.02;33.49;100656.77;2150005;81;20986;-70
2022/06/15 11:08:06;;;;;;;2.10;1.00;;;;;;;25.44;33.19;100657.64;2150427;81;21516;-70
2022/06/15 11:11:26;;;;;;;2.35;1.10;;;;;;;25.47;33.57;100653.05;2156398;81;21326;-70
2022/06/15 11:14:32;;;;;;;2.80;1.12;;;;;;;25.52;33.13;100651.49;2147320;81;21016;-70
2022/06/15 11:21:12;;;;;;;4.05;1.27;;;;;;;25.34;32.75;100643.09;2149098;81;21698;-70
2022/06/15 11:24:35;;;;;;;3.40;1.50;;;;;;;25.74;33.56;100644.69;2146809;81;21074;-70
2022/06/15 11:27:54;;;;;;;3.20;1.47;;;;;;;25.75;33.17;100645.78;2140932;81;21717;-69
2022/06/15 11:31:01;;;;;;;2.37;1.25;;;;;;;25.32;33.17;100643.91;2152150;81;21017;-70
2022/06/15 11:34:10;;;;;;;4.05;1.50;;;;;;;25.21;33.66;100638.88;2149971;81;21010;-70
2022/06/15 11:37:17;;;;;;;3.90;1.65;;;;;;;25.31;33.26;100642.25;2146375;81;21046;-70
2022/06/15 11:40:42;;;;;;;3.45;1.47;;;;;;;25.01;33.55;100640.20;2147558;81;21525;-70
2022/06/15 11:43:47;;;;;;;5.30;1.67;;;;;;;24.70;33.23;100637.57;2090103;81;21070;-69
2022/06/15 11:47:18;;;;;;;4.12;1.50;;;;;;;24.87;33.86;100631.31;2147017;81;20958;-70
2022/06/15 11:50:33;;;;;;;3.72;1.37;;;;;;;25.12;33.78;100633.56;2151811;81;21016;-70
2022/06/15 11:54:06;;;;;;;2.77;1.22;;;;;;;25.61;34.12;100630.95;2150000;81;21061;-70
2022/06/15 11:57:28;;;;;;;4.03;1.80;;;;;;;25.49;33.38;100635.16;2147918;81;21019;-69
2022/06/15 12:01:08;;;;;;;3.83;1.30;;;;;;;25.04;33.66;100634.81;2148116;81;20987;-70
2022/06/15 12:04:35;;;;;;;3.37;1.42;;;;;;;24.55;33.48;100627.82;2140108;81;20987;-70
2022/06/15 12:08:08;;;;;;;3.20;1.70;;;;;;;24.70;34.25;100625.91;2115763;82;20975;-69
2022/06/15 12:15:28;;;;;;;6.17;1.70;;;;;;;24.05;35.64;100618.56;2146818;81;20986;-70
2022/06/15 12:18:53;;;;;;;3.47;1.40;;;;;;;23.88;35.36;100623.13;2149164;81;21135;-70
2022/06/15 12:22:17;;;;;;;7.28;1.80;;;;;;;23.70;35.46;100620.88;2147117;82;21033;-71
2022/06/15 12:25:27;;;;;;;3.72;1.65;;;;;;;23.74;35.42;100621.24;2154978;81;21005;-70
2022/06/15 12:28:46;;;;;;;2.83;1.27;;;;;;;23.94;35.94;100612.13;2151241;81;21079;-71
2022/06/15 12:35:32;;;;;;;;;;;;;;;24.25;36.61;100609.15;2154465;81;20898;-71
2022/06/15 12:38:39;;;;;;;6.17;1.80;;;;;;;24.06;36.49;100604.48;2156794;81;20195;-71
2022/06/15 12:45:22;;;;;;;4.60;1.85;;;;;;;24.30;36.59;100595.65;2134659;81;21018;-71
2022/06/15 12:49:01;;;;;;;4.60;1.80;;;;;;;24.18;36.50;100592.20;2148534;82;20958;-71
2022/06/15 12:52:20;;;;;;;6.05;1.70;;;;;;;24.15;37.28;100594.33;2150996;81;20994;-71
2022/06/15 12:55:41;;;;;;;4.50;1.70;;;;;;;24.20;36.41;100590.08;2156329;81;21034;-71
2022/06/15 12:59:28;;;;;;;2.52;1.42;;;;;;;24.23;36.80;100602.60;2152002;81;21125;-71
2022/06/15 13:03:16;;;;;;;4.85;1.77;;;;;;;24.18;36.56;100596.27;2152189;81;21057;-71
2022/06/15 13:06:34;;;;;;;2.55;1.40;;;;;;;24.04;36.61;100591.69;2148845;81;21030;-71
2022/06/15 13:09:36;;;;;;;3.08;1.60;;;;;;;23.90;37.43;100586.57;2154296;81;21493;-71
2022/06/15 13:12:51;;;;;;;4.35;1.50;;;;;;;24.01;37.38;100590.83;2145826;81;21049;-71
2022/06/15 13:15:59;;;;;;;3.55;1.20;;;;;;;24.01;36.86;100582.70;2157648;81;20974;-71
2022/06/15 13:19:04;;;;;;;2.83;1.37;;;;;;;24.06;37.20;100582.25;2156048;81;20978;-71
2022/06/15 13:22:20;;;;;;;3.75;1.40;;;;;;;24.13;37.34;100576.16;2151970;81;21623;-70
2022/06/15 13:25:22;;;;;;;3.52;1.42;;;;;;;24.16;37.19;100583.80;2129277;80;21037;-71
2022/06/15 13:28:34;;;;;;;4.42;1.57;;;;;;;24.07;37.58;100579.82;2150889;81;21020;-71
2022/06/15 13:31:49;;;;;;;2.45;1.50;;;;;;;24.12;37.01;100574.48;2152409;81;21064;-70
2022/06/15 13:34:51;;;;;;;3.58;1.52;;;;;;;24.06;37.44;100572.77;2157301;81;21036;-70
2022/06/15 13:38:19;;;;;;;7.05;1.75;;;;;;;23.87;37.11;100573.52;2166963;81;21052;-71
2022/06/15 13:41:27;;;;;;;3.12;1.37;;;;;;;23.73;36.49;100567.29;2168781;81;21089;-71
2022/06/15 13:44:29;;;;;;;4.05;1.50;;;;;;;23.73;37.84;100564.58;2173526;80;20956;-71
2022/06/15 13:47:51;;;;;;;3.22;1.52;;;;;;;23.78;36.95;100559.27;2174965;80;22223;-71
2022/06/15 13:50:59;;;;;;;2.67;1.50;;;;;;;23.65;37.52;100567.95;2167270;81;21060;-70
2022/06/15 13:54:41;;;;;;;6.00;1.62;;;;;;;23.52;37.76;100557.41;2164015;81;21052;-70
2022/06/15 13:58:00;;;;;;;6.00;1.82;;;;;;;23.51;37.96;100557.12;2170258;80;21021;-70
2022/06/15 14:01:36;;;;;;;4.50;1.60;;;;;;;23.52;38.27;100556.05;2168003;81;20951;-71
2022/06/15 14:05:10;;;;;;;1.47;1.15;;;;;;;23.40;37.46;100551.22;2172116;80;21016;-71
2022/06/15 14:08:54;;;;;;;4.53;1.50;;;;;;;23.40;37.70;100545.80;2176198;81;21068;-70
2022/06/15 14:12:16;;;;;;;2.20;1.50;;;;;;;23.34;38.26;100550.80;2170332;80;21128;-70
2022/06/15 14:15:38;;;;;;;4.55;1.47;;;;;;;23.37;38.79;100537.63;2170601;80;20985;-71
2022/06/15 14:18:58;;;;;;;3.52;1.50;;;;;;;23.26;38.03;100537.95;2171987;80;21041;-71
2022/06/15 14:22:13;;;;;;;2.55;1.50;;;;;;;22.97;38.31;100533.55;2163732;81;21044;-70
2022/06/15 14:25:17;;;;;;;4.78;1.47;;;;;;;22.98;39.12;100524.39;2177346;81;21511;-71
2022/06/15 14:28:23;;;;;;;5.47;1.60;;;;;;;22.88;38.39;100522.78;2144871;80;21123;-71
2022/06/15 14:31:28;;;;;;;4.25;1.40;;;;;;;22.75;38.84;100530.61;2170940;81;21087;-70
2022/06/15 14:34:34;;;;;;;4.28;1.75;;;;;;;22.78;38.93;100527.45;2169992;80;21030;-71
2022/06/15 14:37:36;;;;;;;4.25;1.45;;;;;;;22.76;39.34;100522.80;2163368;81;21058;-70
2022/06/15 14:40:43;;;;;;;2.85;1.40;;;;;;;22.70;38.86;100525.93;2154199;81;21877;-70
2022/06/15 14:43:54;;;;;;;4.00;1.60;;;;;;;22.65;39.36;100527.16;2152979;81;22179;-71
2022/06/15 14:47:01;;;;;;;1.77;1.30;;;;;;;22.71;39.39;100524.04;2144597;82;21077;-70
2022/06/15 14:50:04;;;;;;;3.08;1.67;;;;;;;22.71;39.51;100527.56;2130163;82;21074;-70
2022/06/15 14:53:11;;;;;;;4.87;1.70;;;;;;;22.65;39.16;100524.45;2152486;81;21041;-71
2022/06/15 14:56:13;;;;;;;3.02;1.70;;;;;;;22.57;39.50;100521.58;2149424;81;20994;-70
2022/06/15 14:59:23;;;;;;;3.45;1.77;;;;;;;22.58;40.01;100521.04;2154494;81;22144;-70
2022/06/15 15:02:47;;;;;;;5.17;2.15;;;;;;;22.63;39.39;100518.45;2151813;81;21045;-69
2022/06/15 15:05:49;;;;;;;2.60;1.47;;;;;;;22.54;39.88;100509.88;2155810;81;21324;-69
2022/06/15 15:08:53;;;;;;;3.37;1.57;;;;;;;22.44;39.51;100503.41;2148688;81;21014;-70
2022/06/15 15:11:56;;;;;;;3.22;1.70;;;;;;;22.43;39.89;100508.54;2151082;81;21006;-70
2022/06/15 15:14:57;;;;;;;4.17;1.72;;;;;;;22.38;39.44;100500.63;2134319;81;21021;-70
2022/06/15 15:18:04;;;;;;;2.77;1.60;;;;;;;22.38;40.27;100499.27;2155006;81;20998;-69